Terminal Aerodrome Forecast
Issued by NWS

Home | Current Version | Previous Version | Text Only | Print | Product List | Glossary Off
Versions: 1 2 3 4 5 6 7 8 9 10 11 12 13 14 15 16 17 18 19 20 21 22 23 24

394
FTUS43 KMPX 192210 AAB
TAFRNH
TAF AMD
KRNH 192210Z 1922/2018 16007KT 6SM BR SCT015 OVC060
     FM200200 14005KT 5SM BR OVC012
     FM200600 13004KT 2SM BR OVC007
     FM200700 12003KT 2SM -RA BR OVC005=

USA.gov is the U.S. government's official web portal to all federal, state and local government web resources and services.